Time;durP1;ratioP1;P1;durP2;ratioP2;P2;SDS_P1;SDS_P2;PMS_P1;PMS_P2;Temp;Humidity;BMP_temperature;BMP_pressure;BME280_temperature;BME280_humidity;BME280_pressure;Samples;Min_cycle;Max_cycle;Signal;HPM_P1;HPM_P2
2023/10/06 00:00:44;;;;;;;422.57;175.77;;;;;;;;;;5007962;28;20400;-55
2023/10/06 00:03:14;;;;;;;431.67;179.50;;;;;;;;;;5005959;28;20310;-55
2023/10/06 00:05:44;;;;;;;400.87;164.37;;;;;;;;;;5013186;28;20216;-55
2023/10/06 00:08:11;;;;;;;439.67;185.37;;;;;;;;;;5012549;28;20861;-55
2023/10/06 00:10:37;;;;;;;440.93;184.97;;;;;;;;;;5004652;28;20671;-55
2023/10/06 00:13:05;;;;;;;455.93;201.13;;;;;;;;;;4999816;28;20215;-55
2023/10/06 00:15:43;;;;;;;419.00;174.23;;;;;;;;;;5009235;28;20297;-55
2023/10/06 00:18:16;;;;;;;447.70;188.00;;;;;;;;;;5008175;28;20714;-55
2023/10/06 00:20:49;;;;;;;497.33;221.07;;;;;;;;;;4999768;28;20219;-55
2023/10/06 00:23:22;;;;;;;445.80;187.40;;;;;;;;;;5006035;28;20315;-57
2023/10/06 00:25:52;;;;;;;421.83;177.00;;;;;;;;;;5008573;28;20216;-55
2023/10/06 00:28:25;;;;;;;452.93;197.40;;;;;;;;;;5006227;28;20385;-55
2023/10/06 00:30:56;;;;;;;425.83;177.63;;;;;;;;;;5011090;28;20192;-55
2023/10/06 00:33:22;;;;;;;390.93;164.70;;;;;;;;;;5009082;28;20695;-55
2023/10/06 00:35:50;;;;;;;467.67;202.57;;;;;;;;;;5005745;28;20215;-54
2023/10/06 00:38:19;;;;;;;439.77;187.77;;;;;;;;;;5007283;28;20229;-55
2023/10/06 00:40:51;;;;;;;445.93;189.07;;;;;;;;;;5028241;28;20821;-55
2023/10/06 00:43:28;;;;;;;421.87;176.60;;;;;;;;;;5008652;28;20266;-55
2023/10/06 00:46:00;;;;;;;486.60;215.43;;;;;;;;;;5000053;28;20191;-54
2023/10/06 00:48:26;;;;;;;392.30;163.50;;;;;;;;;;5002430;28;20212;-54
2023/10/06 00:50:57;;;;;;;409.63;177.50;;;;;;;;;;5010140;28;20220;-54
2023/10/06 00:53:26;;;;;;;432.10;180.23;;;;;;;;;;5007467;28;20245;-55
2023/10/06 00:55:54;;;;;;;486.67;219.67;;;;;;;;;;5000985;28;20208;-55
2023/10/06 00:58:20;;;;;;;481.07;207.20;;;;;;;;;;5006963;28;20710;-55
2023/10/06 01:00:47;;;;;;;469.50;200.87;;;;;;;;;;4999290;28;20212;-55
2023/10/06 01:03:14;;;;;;;448.40;191.90;;;;;;;;;;5000428;28;20541;-55
2023/10/06 01:05:45;;;;;;;491.50;219.50;;;;;;;;;;5001242;28;20299;-55
2023/10/06 01:08:12;;;;;;;457.87;192.73;;;;;;;;;;5001683;28;20717;-55
2023/10/06 01:10:38;;;;;;;440.93;184.13;;;;;;;;;;5002034;28;20259;-55
2023/10/06 01:13:14;;;;;;;467.27;203.27;;;;;;;;;;5000948;28;20172;-55
2023/10/06 01:15:55;;;;;;;459.50;194.37;;;;;;;;;;5008993;28;20196;-54
2023/10/06 01:18:25;;;;;;;430.10;179.07;;;;;;;;;;5001778;28;20256;-55
2023/10/06 01:20:51;;;;;;;480.77;209.97;;;;;;;;;;4999729;28;20219;-54
2023/10/06 01:23:21;;;;;;;461.53;195.43;;;;;;;;;;5005699;28;20224;-55
2023/10/06 01:25:50;;;;;;;479.17;208.07;;;;;;;;;;4987515;28;20525;-55
2023/10/06 01:28:17;;;;;;;467.00;201.73;;;;;;;;;;4996388;28;20698;-55
2023/10/06 01:30:43;;;;;;;419.47;176.03;;;;;;;;;;5004820;28;20575;-55
2023/10/06 01:33:10;;;;;;;429.07;180.37;;;;;;;;;;5005516;28;20212;-55
2023/10/06 01:35:42;;;;;;;482.97;211.03;;;;;;;;;;4997833;28;20220;-55
2023/10/06 01:38:14;;;;;;;480.47;209.97;;;;;;;;;;4996458;28;20306;-55
2023/10/06 01:40:44;;;;;;;420.70;173.87;;;;;;;;;;5003198;28;20338;-55
2023/10/06 01:43:12;;;;;;;456.30;200.83;;;;;;;;;;5000492;28;20212;-55
2023/10/06 01:45:44;;;;;;;484.73;211.93;;;;;;;;;;5001143;28;20778;-55
2023/10/06 01:50:39;;;;;;;463.43;195.40;;;;;;;;;;4995238;28;20212;-55
2023/10/06 01:53:07;;;;;;;440.73;183.43;;;;;;;;;;4997854;28;20212;-55
2023/10/06 01:55:37;;;;;;;419.43;175.53;;;;;;;;;;5003819;28;20269;-55
2023/10/06 01:58:05;;;;;;;503.83;222.00;;;;;;;;;;4995336;28;20294;-55
2023/10/06 02:00:33;;;;;;;431.20;181.70;;;;;;;;;;5006086;28;20184;-55
2023/10/06 02:03:00;;;;;;;420.17;176.33;;;;;;;;;;5007209;28;20219;-55
2023/10/06 02:05:26;;;;;;;441.77;189.87;;;;;;;;;;4999561;28;20678;-55
2023/10/06 02:07:57;;;;;;;469.37;202.67;;;;;;;;;;5009910;28;20212;-55
2023/10/06 02:10:23;;;;;;;435.80;184.17;;;;;;;;;;5003542;28;20452;-55
2023/10/06 02:12:49;;;;;;;414.30;168.73;;;;;;;;;;5009859;28;20187;-55
2023/10/06 02:15:15;;;;;;;498.97;224.27;;;;;;;;;;4999598;28;20431;-55
2023/10/06 02:17:41;;;;;;;441.00;191.37;;;;;;;;;;5005612;28;20242;-55
2023/10/06 02:20:19;;;;;;;457.83;197.23;;;;;;;;;;5001239;28;20231;-55
2023/10/06 02:22:45;;;;;;;438.87;184.60;;;;;;;;;;5003605;28;20216;-54
2023/10/06 02:25:11;;;;;;;440.80;185.83;;;;;;;;;;5009838;28;20689;-55
2023/10/06 02:27:50;;;;;;;474.43;207.27;;;;;;;;;;4996070;28;20193;-55
2023/10/06 02:30:18;;;;;;;497.07;223.50;;;;;;;;;;4992456;28;20212;-55
2023/10/06 02:32:45;;;;;;;443.90;189.30;;;;;;;;;;5008370;28;20311;-55
2023/10/06 02:35:12;;;;;;;489.17;213.07;;;;;;;;;;4996090;28;20220;-55
2023/10/06 02:37:38;;;;;;;451.73;190.30;;;;;;;;;;5005291;28;20254;-55
2023/10/06 02:40:11;;;;;;;453.97;202.70;;;;;;;;;;5010248;28;20196;-55
2023/10/06 02:42:41;;;;;;;466.83;205.53;;;;;;;;;;5007712;28;20477;-55
2023/10/06 02:45:07;;;;;;;472.10;205.83;;;;;;;;;;5003422;28;20264;-55
2023/10/06 02:47:33;;;;;;;484.33;210.67;;;;;;;;;;5006245;28;20208;-55
2023/10/06 02:49:59;;;;;;;480.13;215.77;;;;;;;;;;5001969;28;20235;-55
2023/10/06 02:52:37;;;;;;;495.07;221.90;;;;;;;;;;5001063;28;20218;-55
2023/10/06 02:57:34;;;;;;;423.20;180.20;;;;;;;;;;5010142;28;20310;-55
2023/10/06 03:00:28;;;;;;;427.47;179.20;;;;;;;;;;5006563;28;20285;-55
2023/10/06 03:02:46;;;;;;;424.77;180.83;;;;;;;;;;5003640;28;20263;-55
2023/10/06 03:05:14;;;;;;;435.80;186.10;;;;;;;;;;5005086;28;20224;-55
2023/10/06 03:07:43;;;;;;;448.83;192.43;;;;;;;;;;5008767;28;20519;-55
2023/10/06 03:10:11;;;;;;;424.87;181.17;;;;;;;;;;5003026;28;20638;-55
2023/10/06 03:12:39;;;;;;;491.40;214.63;;;;;;;;;;5001063;28;20215;-55
2023/10/06 03:15:28;;;;;;;412.30;174.87;;;;;;;;;;5000560;28;20905;-55
2023/10/06 03:17:58;;;;;;;418.73;174.37;;;;;;;;;;5004557;28;20224;-55
2023/10/06 03:20:28;;;;;;;447.47;195.73;;;;;;;;;;5002854;28;20220;-55
2023/10/06 03:22:55;;;;;;;425.03;176.97;;;;;;;;;;5000523;28;20334;-56
2023/10/06 03:25:22;;;;;;;495.97;224.10;;;;;;;;;;5000863;28;20221;-55
2023/10/06 03:27:54;;;;;;;446.03;188.87;;;;;;;;;;4997030;28;20201;-55
2023/10/06 03:30:27;;;;;;;499.30;225.10;;;;;;;;;;5000874;28;20228;-55
2023/10/06 03:32:53;;;;;;;468.00;203.17;;;;;;;;;;4997628;28;20256;-54
2023/10/06 03:35:35;;;;;;;451.93;195.43;;;;;;;;;;5004946;28;20251;-56
2023/10/06 03:38:12;;;;;;;416.40;176.60;;;;;;;;;;5005190;28;20691;-56
2023/10/06 03:43:45;;;;;;;466.33;200.77;;;;;;;;;;4954627;28;20375;-56
2023/10/06 03:46:18;;;;;;;502.00;226.90;;;;;;;;;;4988971;28;20254;-56
2023/10/06 03:48:44;;;;;;;438.93;188.67;;;;;;;;;;5007400;28;20204;-56
2023/10/06 03:51:11;;;;;;;448.23;191.47;;;;;;;;;;4994941;28;20212;-56
2023/10/06 03:53:37;;;;;;;498.63;224.57;;;;;;;;;;5003459;28;20659;-56
2023/10/06 03:56:03;;;;;;;482.73;212.77;;;;;;;;;;4996708;28;20228;-54
2023/10/06 03:58:29;;;;;;;449.53;191.50;;;;;;;;;;5001550;28;20298;-54
2023/10/06 04:00:55;;;;;;;474.60;210.23;;;;;;;;;;5001235;28;20230;-55
2023/10/06 04:03:21;;;;;;;479.60;214.50;;;;;;;;;;5006533;28;20181;-55
2023/10/06 04:05:48;;;;;;;436.70;183.57;;;;;;;;;;5011102;28;20223;-54
2023/10/06 04:08:16;;;;;;;452.10;192.93;;;;;;;;;;5007812;28;20298;-55
2023/10/06 04:10:42;;;;;;;457.03;200.60;;;;;;;;;;5003438;28;20212;-55
2023/10/06 04:13:09;;;;;;;451.77;198.87;;;;;;;;;;5001948;28;20216;-54
2023/10/06 04:15:38;;;;;;;426.67;185.07;;;;;;;;;;5018072;23;20457;-70
2023/10/06 04:18:04;;;;;;;444.07;185.17;;;;;;;;;;5009884;28;20255;-70
2023/10/06 04:20:32;;;;;;;468.63;205.40;;;;;;;;;;4994381;28;20575;-70
2023/10/06 04:23:02;;;;;;;428.80;206.83;;;;;;;;;;4992642;28;20211;-70
2023/10/06 04:25:28;;;;;;;477.23;202.77;;;;;;;;;;4993845;28;20236;-69
2023/10/06 04:27:54;;;;;;;455.90;197.80;;;;;;;;;;5012372;23;20240;-55
2023/10/06 04:30:21;;;;;;;476.67;218.10;;;;;;;;;;5000917;28;20562;-55
2023/10/06 04:32:47;;;;;;;460.60;198.23;;;;;;;;;;5007298;28;20209;-55
2023/10/06 04:35:20;;;;;;;430.57;183.10;;;;;;;;;;5004258;28;20235;-55
2023/10/06 04:37:47;;;;;;;449.73;191.17;;;;;;;;;;5006163;28;20255;-55
2023/10/06 04:40:17;;;;;;;434.00;182.87;;;;;;;;;;5006545;28;20228;-55
2023/10/06 04:42:43;;;;;;;512.43;236.60;;;;;;;;;;5004058;28;20188;-55
2023/10/06 04:45:12;;;;;;;469.37;203.97;;;;;;;;;;5009580;28;20636;-55
2023/10/06 04:47:40;;;;;;;465.63;198.00;;;;;;;;;;5003097;28;22496;-55
2023/10/06 04:50:09;;;;;;;442.53;195.17;;;;;;;;;;5000646;28;20314;-55
2023/10/06 04:52:35;;;;;;;548.53;263.87;;;;;;;;;;4998094;28;20523;-55
2023/10/06 04:55:03;;;;;;;419.60;179.97;;;;;;;;;;4999123;28;20881;-55
2023/10/06 04:57:29;;;;;;;471.33;201.10;;;;;;;;;;5013968;28;20235;-55
2023/10/06 04:59:55;;;;;;;474.90;207.07;;;;;;;;;;5004220;28;20215;-55
2023/10/06 05:02:23;;;;;;;475.47;210.50;;;;;;;;;;5007477;28;20225;-56
2023/10/06 05:04:51;;;;;;;444.77;192.77;;;;;;;;;;5008646;28;20269;-55
2023/10/06 05:07:17;;;;;;;423.67;180.20;;;;;;;;;;5010689;28;20212;-56
2023/10/06 05:09:43;;;;;;;487.57;219.50;;;;;;;;;;5002564;28;20358;-56
2023/10/06 05:12:11;;;;;;;446.60;194.10;;;;;;;;;;5007558;28;20231;-55
2023/10/06 05:14:38;;;;;;;535.47;250.50;;;;;;;;;;4954574;28;20222;-56
2023/10/06 05:17:04;;;;;;;471.30;197.80;;;;;;;;;;4998279;28;20232;-56
2023/10/06 05:19:34;;;;;;;489.63;219.40;;;;;;;;;;4997544;28;20304;-56
2023/10/06 05:22:03;;;;;;;449.53;198.43;;;;;;;;;;5002768;28;20541;-56
2023/10/06 05:24:32;;;;;;;431.83;184.03;;;;;;;;;;4998345;28;20323;-57
2023/10/06 05:26:58;;;;;;;466.37;204.13;;;;;;;;;;4997219;28;20224;-56
2023/10/06 05:29:25;;;;;;;475.73;212.00;;;;;;;;;;4999539;28;20655;-56
2023/10/06 05:31:52;;;;;;;411.87;175.57;;;;;;;;;;4994795;28;20220;-56
2023/10/06 05:34:18;;;;;;;494.40;221.10;;;;;;;;;;4995475;28;24376;-56
2023/10/06 05:36:44;;;;;;;466.97;199.07;;;;;;;;;;4987348;28;20195;-56
2023/10/06 05:39:11;;;;;;;523.93;242.87;;;;;;;;;;5003484;28;20232;-56
2023/10/06 05:41:39;;;;;;;477.97;211.37;;;;;;;;;;4997145;28;20229;-56
2023/10/06 05:44:08;;;;;;;468.67;206.97;;;;;;;;;;4994049;28;20212;-56
2023/10/06 05:46:34;;;;;;;461.50;198.97;;;;;;;;;;4993470;28;20226;-55
2023/10/06 05:49:03;;;;;;;461.27;190.40;;;;;;;;;;4990030;28;20887;-55
2023/10/06 05:51:33;;;;;;;520.20;206.60;;;;;;;;;;4995042;28;20678;-55
2023/10/06 05:53:58;;;;;;;422.67;182.33;;;;;;;;;;4989546;28;20679;-57
2023/10/06 05:56:27;;;;;;;419.80;182.17;;;;;;;;;;4999403;28;20239;-57
2023/10/06 05:58:53;;;;;;;508.23;231.37;;;;;;;;;;4975810;28;20760;-56
2023/10/06 06:01:20;;;;;;;439.07;192.90;;;;;;;;;;5000458;28;20230;-60
2023/10/06 06:03:46;;;;;;;403.70;171.67;;;;;;;;;;5005685;28;20199;-57
2023/10/06 06:06:14;;;;;;;466.03;213.63;;;;;;;;;;4993309;28;20223;-56
2023/10/06 06:08:43;;;;;;;488.93;221.07;;;;;;;;;;5000682;28;20224;-56
2023/10/06 06:11:09;;;;;;;522.73;234.17;;;;;;;;;;5003448;28;20224;-57
2023/10/06 06:13:38;;;;;;;473.73;206.67;;;;;;;;;;5000693;28;20212;-57
2023/10/06 06:16:07;;;;;;;477.77;208.43;;;;;;;;;;4994471;28;20226;-55
2023/10/06 06:18:34;;;;;;;641.97;322.67;;;;;;;;;;4992672;28;20713;-55
2023/10/06 06:21:03;;;;;;;502.87;226.27;;;;;;;;;;4981012;28;20345;-57
2023/10/06 06:23:33;;;;;;;469.17;201.30;;;;;;;;;;5001813;28;20220;-56
2023/10/06 06:26:00;;;;;;;467.50;209.50;;;;;;;;;;4998801;28;20672;-56
2023/10/06 06:28:26;;;;;;;447.67;193.77;;;;;;;;;;5006448;28;20212;-56
2023/10/06 06:30:52;;;;;;;457.07;194.70;;;;;;;;;;5005749;28;20185;-57
2023/10/06 06:33:22;;;;;;;428.23;181.50;;;;;;;;;;5002576;28;20684;-56
2023/10/06 06:35:48;;;;;;;450.03;191.03;;;;;;;;;;4999580;28;22043;-56
2023/10/06 06:38:14;;;;;;;564.77;261.40;;;;;;;;;;4995717;28;20220;-57
2023/10/06 06:40:41;;;;;;;440.07;186.27;;;;;;;;;;4994483;28;20243;-57
2023/10/06 06:43:09;;;;;;;433.40;182.20;;;;;;;;;;5009727;28;20188;-56
2023/10/06 06:45:39;;;;;;;473.67;202.33;;;;;;;;;;5013294;28;20192;-55
2023/10/06 06:48:12;;;;;;;615.10;300.93;;;;;;;;;;4982230;28;21143;-56
2023/10/06 06:50:39;;;;;;;490.33;209.07;;;;;;;;;;4997943;28;20532;-56
2023/10/06 06:53:05;;;;;;;437.43;181.10;;;;;;;;;;5013109;28;20308;-55
2023/10/06 06:55:31;;;;;;;535.33;235.73;;;;;;;;;;5001534;28;20307;-55
2023/10/06 06:58:00;;;;;;;539.50;237.70;;;;;;;;;;5004466;28;23585;-56
2023/10/06 07:00:26;;;;;;;464.40;197.40;;;;;;;;;;5002400;28;20251;-56
2023/10/06 07:02:53;;;;;;;436.40;185.17;;;;;;;;;;4978355;28;24341;-55
2023/10/06 07:05:20;;;;;;;519.70;227.37;;;;;;;;;;4979520;28;20210;-55
2023/10/06 07:07:47;;;;;;;452.23;194.67;;;;;;;;;;5003051;28;20215;-55
2023/10/06 07:10:14;;;;;;;499.90;220.37;;;;;;;;;;5001385;28;20646;-54
2023/10/06 07:12:44;;;;;;;541.37;243.80;;;;;;;;;;4995137;28;20593;-55
2023/10/06 07:15:17;;;;;;;496.30;217.43;;;;;;;;;;4999442;28;20244;-55
2023/10/06 07:17:48;;;;;;;536.80;242.27;;;;;;;;;;5012328;28;20227;-55
2023/10/06 07:20:16;;;;;;;441.63;187.70;;;;;;;;;;5006058;28;20212;-55
2023/10/06 07:22:42;;;;;;;480.13;214.83;;;;;;;;;;5006175;28;20613;-55
2023/10/06 07:25:10;;;;;;;452.33;194.03;;;;;;;;;;4980593;28;20531;-55
2023/10/06 07:27:36;;;;;;;464.70;201.53;;;;;;;;;;4977382;28;20231;-56
2023/10/06 07:30:04;;;;;;;438.37;185.53;;;;;;;;;;4995304;28;20737;-56
2023/10/06 07:32:31;;;;;;;480.50;210.03;;;;;;;;;;4998419;28;20216;-56
2023/10/06 07:34:57;;;;;;;453.67;194.13;;;;;;;;;;4996695;28;20275;-56
2023/10/06 07:37:23;;;;;;;493.10;223.07;;;;;;;;;;4987422;28;20287;-56
2023/10/06 07:39:49;;;;;;;550.73;254.33;;;;;;;;;;4994896;28;20211;-56
2023/10/06 07:42:16;;;;;;;451.17;196.10;;;;;;;;;;5000496;28;20216;-56
2023/10/06 07:44:47;;;;;;;459.50;195.13;;;;;;;;;;5004506;28;20243;-56
2023/10/06 07:47:13;;;;;;;463.90;201.13;;;;;;;;;;4992327;28;20246;-56
2023/10/06 07:49:40;;;;;;;491.00;212.13;;;;;;;;;;4999961;28;20307;-57
2023/10/06 07:52:07;;;;;;;436.63;186.83;;;;;;;;;;5009192;28;20184;-57
2023/10/06 07:54:33;;;;;;;457.83;197.00;;;;;;;;;;5001004;28;20192;-56
2023/10/06 07:56:59;;;;;;;485.33;218.40;;;;;;;;;;4998306;28;20698;-57
2023/10/06 07:59:25;;;;;;;464.33;201.23;;;;;;;;;;5008447;28;20302;-57
2023/10/06 08:01:53;;;;;;;482.77;208.13;;;;;;;;;;5000931;28;20667;-56
2023/10/06 08:04:19;;;;;;;510.37;237.30;;;;;;;;;;4998213;28;20226;-56
2023/10/06 08:06:46;;;;;;;576.93;264.60;;;;;;;;;;4971495;28;45956;-56
2023/10/06 08:09:11;;;;;;;484.07;213.37;;;;;;;;;;4999777;28;20216;-57
2023/10/06 08:11:39;;;;;;;481.40;214.57;;;;;;;;;;5005302;28;20239;-56
2023/10/06 08:14:06;;;;;;;469.57;205.50;;;;;;;;;;5005794;28;20215;-56
2023/10/06 08:16:33;;;;;;;467.57;210.20;;;;;;;;;;5013092;28;20281;-56
2023/10/06 08:19:00;;;;;;;474.17;215.27;;;;;;;;;;5008929;28;20204;-56
2023/10/06 08:21:26;;;;;;;483.30;211.90;;;;;;;;;;5003690;28;20184;-56
2023/10/06 08:23:52;;;;;;;486.43;210.20;;;;;;;;;;4998197;28;20223;-56
2023/10/06 08:26:17;;;;;;;514.33;233.87;;;;;;;;;;4994998;28;20227;-56
2023/10/06 08:28:45;;;;;;;514.37;232.77;;;;;;;;;;4996106;28;20469;-56
2023/10/06 08:31:14;;;;;;;437.43;190.30;;;;;;;;;;5005343;28;20749;-56
2023/10/06 08:33:40;;;;;;;488.77;216.63;;;;;;;;;;4998835;28;20238;-56
2023/10/06 08:36:10;;;;;;;459.23;205.73;;;;;;;;;;5001471;28;20698;-56
2023/10/06 08:38:36;;;;;;;503.40;227.57;;;;;;;;;;5001102;28;20622;-56
2023/10/06 08:41:03;;;;;;;466.17;206.80;;;;;;;;;;5004950;28;20285;-56
2023/10/06 08:43:28;;;;;;;476.67;208.63;;;;;;;;;;5004888;28;20718;-56
2023/10/06 08:45:59;;;;;;;495.60;224.43;;;;;;;;;;5000916;28;20191;-56
2023/10/06 08:48:25;;;;;;;494.10;222.63;;;;;;;;;;5004609;28;20789;-56
2023/10/06 08:50:53;;;;;;;521.13;239.43;;;;;;;;;;4994552;28;20224;-56
2023/10/06 08:53:23;;;;;;;470.57;210.70;;;;;;;;;;5003001;28;20260;-56
2023/10/06 08:55:49;;;;;;;530.73;248.43;;;;;;;;;;4996802;28;20220;-56
2023/10/06 08:58:16;;;;;;;478.43;215.67;;;;;;;;;;4995996;28;20630;-56
2023/10/06 09:00:46;;;;;;;493.60;223.20;;;;;;;;;;5002237;28;22993;-56
2023/10/06 09:03:14;;;;;;;455.63;201.63;;;;;;;;;;4989008;28;20672;-56
2023/10/06 09:05:44;;;;;;;522.07;244.13;;;;;;;;;;4986265;28;20228;-56
2023/10/06 09:08:12;;;;;;;499.00;232.37;;;;;;;;;;4995528;28;20315;-56
2023/10/06 09:10:55;;;;;;;509.57;237.90;;;;;;;;;;4998548;28;20694;-56
2023/10/06 09:13:23;;;;;;;460.93;204.53;;;;;;;;;;4991312;28;20216;-56
2023/10/06 09:15:55;;;;;;;409.90;192.97;;;;;;;;;;5007294;28;20192;-56
2023/10/06 09:18:28;;;;;;;370.00;172.43;;;;;;;;;;5010508;28;20225;-57
2023/10/06 09:20:54;;;;;;;455.17;218.17;;;;;;;;;;5009425;28;20219;-57
2023/10/06 09:23:30;;;;;;;384.13;181.20;;;;;;;;;;5012287;28;20217;-57
2023/10/06 09:25:57;;;;;;;386.43;181.97;;;;;;;;;;5011539;28;20708;-57
2023/10/06 09:28:23;;;;;;;379.67;178.43;;;;;;;;;;5010414;28;20215;-57
2023/10/06 09:31:03;;;;;;;386.17;182.53;;;;;;;;;;5009211;28;20184;-56
2023/10/06 09:33:29;;;;;;;389.03;186.00;;;;;;;;;;5005672;28;20220;-57
2023/10/06 09:36:02;;;;;;;407.30;193.50;;;;;;;;;;5007274;28;20212;-57
2023/10/06 09:38:28;;;;;;;374.70;175.73;;;;;;;;;;5008653;28;20222;-57
2023/10/06 09:40:54;;;;;;;401.97;190.63;;;;;;;;;;5011616;28;20208;-57
2023/10/06 09:43:21;;;;;;;381.40;181.90;;;;;;;;;;5005418;28;20688;-57
2023/10/06 09:45:48;;;;;;;441.57;209.73;;;;;;;;;;5011119;28;20730;-57
2023/10/06 09:48:15;;;;;;;384.63;182.87;;;;;;;;;;5010065;28;20217;-57
2023/10/06 09:50:46;;;;;;;474.70;236.17;;;;;;;;;;5003939;28;20957;-57
2023/10/06 09:53:12;;;;;;;370.20;176.13;;;;;;;;;;5010289;28;20303;-57
2023/10/06 09:55:42;;;;;;;371.67;175.87;;;;;;;;;;5016896;28;20270;-57
2023/10/06 09:58:08;;;;;;;594.87;298.77;;;;;;;;;;4996828;28;20235;-57
2023/10/06 10:00:39;;;;;;;550.13;275.50;;;;;;;;;;4989964;28;20189;-57
2023/10/06 10:03:06;;;;;;;590.57;285.17;;;;;;;;;;4990367;28;20219;-57
2023/10/06 10:05:32;;;;;;;522.27;245.87;;;;;;;;;;4988262;28;20220;-57
2023/10/06 10:07:58;;;;;;;516.80;241.83;;;;;;;;;;5002363;28;20362;-57
2023/10/06 10:10:27;;;;;;;462.70;209.47;;;;;;;;;;5005582;28;20318;-57
2023/10/06 10:13:12;;;;;;;481.20;219.80;;;;;;;;;;4990446;28;20195;-57
2023/10/06 10:16:01;;;;;;;493.60;224.90;;;;;;;;;;5003129;28;20271;-57
2023/10/06 10:18:38;;;;;;;478.13;215.17;;;;;;;;;;4998381;28;20670;-57
2023/10/06 10:21:05;;;;;;;480.63;223.57;;;;;;;;;;4997739;28;20226;-57
2023/10/06 10:23:31;;;;;;;537.63;259.53;;;;;;;;;;4973615;28;20527;-57
2023/10/06 10:26:16;;;;;;;491.03;228.63;;;;;;;;;;4998628;28;20220;-57
2023/10/06 10:28:43;;;;;;;424.17;193.83;;;;;;;;;;5008093;28;20262;-57
2023/10/06 10:31:17;;;;;;;416.93;188.03;;;;;;;;;;5007721;28;20184;-57
2023/10/06 10:33:45;;;;;;;504.83;236.50;;;;;;;;;;4990017;28;20183;-57
2023/10/06 10:36:17;;;;;;;483.63;228.93;;;;;;;;;;4995187;28;20222;-57
2023/10/06 10:38:43;;;;;;;524.73;247.17;;;;;;;;;;4998937;28;20709;-57
2023/10/06 10:41:10;;;;;;;505.20;242.43;;;;;;;;;;5001488;28;20679;-57
2023/10/06 10:43:41;;;;;;;518.93;249.47;;;;;;;;;;4997325;28;20299;-57
2023/10/06 10:46:12;;;;;;;515.57;249.40;;;;;;;;;;4994602;28;20297;-57
2023/10/06 10:48:38;;;;;;;463.07;215.83;;;;;;;;;;5004756;28;20316;-57
2023/10/06 10:51:10;;;;;;;515.60;245.77;;;;;;;;;;4995504;28;20219;-57
2023/10/06 10:53:43;;;;;;;454.77;212.33;;;;;;;;;;4994943;28;20350;-57
2023/10/06 10:56:13;;;;;;;460.60;225.17;;;;;;;;;;4997250;28;20231;-57
2023/10/06 10:58:47;;;;;;;538.37;257.47;;;;;;;;;;4998653;28;20264;-57
2023/10/06 11:01:34;;;;;;;409.77;188.17;;;;;;;;;;5005182;28;20231;-57
2023/10/06 11:04:13;;;;;;;553.83;269.60;;;;;;;;;;4985351;28;33193;-57
2023/10/06 11:06:43;;;;;;;467.13;218.47;;;;;;;;;;5005371;28;20238;-58
2023/10/06 11:09:12;;;;;;;479.17;228.50;;;;;;;;;;4999676;28;20695;-57
2023/10/06 11:11:40;;;;;;;516.97;247.17;;;;;;;;;;4998309;28;20278;-57
2023/10/06 11:14:05;;;;;;;499.17;237.27;;;;;;;;;;5000431;28;20217;-57
2023/10/06 11:16:32;;;;;;;452.40;206.73;;;;;;;;;;5003068;28;20213;-57
2023/10/06 11:18:58;;;;;;;489.90;233.43;;;;;;;;;;4995797;28;20212;-57
2023/10/06 11:21:27;;;;;;;512.53;243.83;;;;;;;;;;4994376;28;20663;-57
2023/10/06 11:23:53;;;;;;;470.63;221.37;;;;;;;;;;5008441;28;20568;-58
2023/10/06 11:26:32;;;;;;;438.43;203.03;;;;;;;;;;5006488;28;20215;-57
2023/10/06 11:29:00;;;;;;;512.17;245.10;;;;;;;;;;4999313;28;20281;-58
2023/10/06 11:31:26;;;;;;;449.77;207.30;;;;;;;;;;4999522;28;20338;-58
2023/10/06 11:33:54;;;;;;;463.93;213.77;;;;;;;;;;5003890;28;21060;-57
2023/10/06 11:36:20;;;;;;;458.37;216.87;;;;;;;;;;5002645;28;20210;-57
2023/10/06 11:38:46;;;;;;;489.00;232.17;;;;;;;;;;5002955;28;20231;-57
2023/10/06 11:41:21;;;;;;;457.13;211.87;;;;;;;;;;4994343;28;20225;-57
2023/10/06 11:43:58;;;;;;;418.87;195.80;;;;;;;;;;5000981;28;20435;-57
2023/10/06 11:46:24;;;;;;;477.83;226.67;;;;;;;;;;5001335;28;20219;-57
2023/10/06 11:48:52;;;;;;;478.17;226.50;;;;;;;;;;5002284;28;20583;-57
2023/10/06 11:51:18;;;;;;;480.67;224.47;;;;;;;;;;4999152;28;20224;-57
2023/10/06 11:53:44;;;;;;;522.77;251.33;;;;;;;;;;4990636;28;20357;-57
2023/10/06 11:56:15;;;;;;;597.23;290.77;;;;;;;;;;5001991;28;20379;-57
2023/10/06 11:58:41;;;;;;;528.53;251.63;;;;;;;;;;4992869;28;20314;-57
2023/10/06 12:01:27;;;;;;;560.63;279.33;;;;;;;;;;4997387;28;20659;-57
2023/10/06 12:03:59;;;;;;;502.40;234.67;;;;;;;;;;5003677;28;20256;-57
2023/10/06 12:06:27;;;;;;;439.57;211.83;;;;;;;;;;5009562;28;20424;-57
2023/10/06 12:08:53;;;;;;;576.93;287.40;;;;;;;;;;4990488;28;20220;-57
2023/10/06 12:11:22;;;;;;;465.87;223.10;;;;;;;;;;5006580;28;20939;-57
2023/10/06 12:13:48;;;;;;;561.63;281.03;;;;;;;;;;4991371;28;20596;-57
2023/10/06 12:16:14;;;;;;;453.63;220.63;;;;;;;;;;5001969;28;20220;-57
2023/10/06 12:18:44;;;;;;;547.17;277.93;;;;;;;;;;4998545;28;20219;-57
2023/10/06 12:21:14;;;;;;;508.27;252.97;;;;;;;;;;4995238;28;20243;-57
2023/10/06 12:23:40;;;;;;;471.80;230.57;;;;;;;;;;4997772;28;20248;-57
2023/10/06 12:26:06;;;;;;;543.97;280.13;;;;;;;;;;5006121;28;20242;-57
2023/10/06 12:28:32;;;;;;;446.77;216.43;;;;;;;;;;5004936;28;20224;-57
2023/10/06 12:30:58;;;;;;;565.63;291.27;;;;;;;;;;5006259;28;20188;-58
2023/10/06 12:33:24;;;;;;;466.40;228.23;;;;;;;;;;4997061;28;20176;-58
2023/10/06 12:35:52;;;;;;;473.80;243.03;;;;;;;;;;5013128;28;20212;-58
2023/10/06 12:38:22;;;;;;;433.13;214.83;;;;;;;;;;5014145;28;20330;-58
2023/10/06 12:40:48;;;;;;;485.70;250.30;;;;;;;;;;5015403;28;20223;-58
2023/10/06 12:43:16;;;;;;;453.00;229.93;;;;;;;;;;5018579;28;20207;-58
2023/10/06 12:45:42;;;;;;;501.70;256.97;;;;;;;;;;5013815;28;20180;-58
2023/10/06 12:48:08;;;;;;;530.57;270.50;;;;;;;;;;4993244;28;20242;-58
2023/10/06 12:50:40;;;;;;;475.63;237.63;;;;;;;;;;4987178;28;20725;-58
2023/10/06 12:53:08;;;;;;;515.03;252.73;;;;;;;;;;5000752;28;20351;-58
2023/10/06 12:55:34;;;;;;;485.17;240.53;;;;;;;;;;5010644;28;20211;-57
2023/10/06 12:58:00;;;;;;;488.60;248.63;;;;;;;;;;5003401;28;20204;-57
2023/10/06 13:00:28;;;;;;;473.93;239.07;;;;;;;;;;4998308;28;21908;-57
2023/10/06 13:02:54;;;;;;;504.80;260.17;;;;;;;;;;5003173;28;20254;-57
2023/10/06 13:05:22;;;;;;;434.93;215.40;;;;;;;;;;4997317;28;20296;-57
2023/10/06 13:07:49;;;;;;;501.23;253.53;;;;;;;;;;4996431;28;20216;-57
2023/10/06 13:10:22;;;;;;;552.67;291.53;;;;;;;;;;4985728;28;20959;-56
2023/10/06 13:12:48;;;;;;;433.80;223.27;;;;;;;;;;4995510;28;20317;-57
2023/10/06 13:15:19;;;;;;;554.00;286.23;;;;;;;;;;5003008;28;20536;-57
2023/10/06 13:17:46;;;;;;;492.10;248.37;;;;;;;;;;5005281;28;20572;-57
2023/10/06 13:20:16;;;;;;;563.50;290.53;;;;;;;;;;4997420;28;20212;-57
2023/10/06 13:22:43;;;;;;;539.83;280.07;;;;;;;;;;5001131;28;20321;-57
2023/10/06 13:25:10;;;;;;;538.27;280.53;;;;;;;;;;4999195;28;20537;-58
2023/10/06 13:27:37;;;;;;;507.83;260.70;;;;;;;;;;4996659;28;20184;-57
2023/10/06 13:30:09;;;;;;;469.70;239.57;;;;;;;;;;5000752;28;20239;-57
2023/10/06 13:32:36;;;;;;;553.97;286.17;;;;;;;;;;5000557;28;20212;-56
2023/10/06 13:35:04;;;;;;;490.93;246.20;;;;;;;;;;4993512;28;20220;-57
2023/10/06 13:37:31;;;;;;;520.83;260.23;;;;;;;;;;4989893;28;20262;-57
2023/10/06 13:39:57;;;;;;;502.70;253.33;;;;;;;;;;4996353;28;20493;-57
2023/10/06 13:42:23;;;;;;;467.17;227.50;;;;;;;;;;4984020;28;20179;-57
2023/10/06 13:44:50;;;;;;;494.13;248.40;;;;;;;;;;5001261;28;20208;-57
2023/10/06 13:47:17;;;;;;;532.30;270.63;;;;;;;;;;4996584;28;20242;-57
2023/10/06 13:49:43;;;;;;;480.97;245.50;;;;;;;;;;4997496;28;20396;-57
2023/10/06 13:52:10;;;;;;;485.90;246.57;;;;;;;;;;5007071;28;20709;-57
2023/10/06 13:54:36;;;;;;;475.67;241.53;;;;;;;;;;5007706;28;20551;-57
2023/10/06 13:57:05;;;;;;;473.93;236.93;;;;;;;;;;5008690;28;20915;-57
2023/10/06 13:59:31;;;;;;;483.73;239.43;;;;;;;;;;5007617;28;20230;-57
2023/10/06 14:01:57;;;;;;;531.03;274.47;;;;;;;;;;4999335;28;20284;-57
2023/10/06 14:04:23;;;;;;;651.60;345.10;;;;;;;;;;4984627;28;20242;-57
2023/10/06 14:06:50;;;;;;;466.30;229.40;;;;;;;;;;4999825;28;20541;-57